createdAt,value
2022-11-21T00:01:29.284Z,52.50
2022-11-21T00:03:56.786Z,56.75
2022-11-21T00:06:23.924Z,47.00
2022-11-21T00:08:51.598Z,49.75
2022-11-21T00:11:18.690Z,52.50
2022-11-21T00:13:46.098Z,55.00
2022-11-21T00:16:16.027Z,49.00
2022-11-21T00:18:44.430Z,59.00
2022-11-21T00:21:14.627Z,61.75
2022-11-21T00:23:43.169Z,57.25
2022-11-21T00:26:12.232Z,63.50
2022-11-21T00:28:39.853Z,64.50
2022-11-21T00:31:07.251Z,57.00
2022-11-21T00:33:35.914Z,60.00
2022-11-21T00:36:09.725Z,57.25
2022-11-21T00:38:37.842Z,57.25
2022-11-21T00:41:05.572Z,61.50
2022-11-21T00:43:33.230Z,59.25
2022-11-21T00:46:03.057Z,45.75
2022-11-21T00:48:32.090Z,37.50
2022-11-21T00:51:00.983Z,54.75
2022-11-21T00:53:29.098Z,53.25
2022-11-21T00:55:56.283Z,51.00
2022-11-21T00:58:23.943Z,65.50
2022-11-21T01:00:51.233Z,61.25
2022-11-21T01:03:18.785Z,62.75
2022-11-21T01:05:45.790Z,53.50
2022-11-21T01:08:13.239Z,57.50
2022-11-21T01:10:40.235Z,53.75
2022-11-21T01:13:07.692Z,52.00
2022-11-21T01:15:35.100Z,52.50
2022-11-21T01:18:02.485Z,50.00
2022-11-21T01:20:29.544Z,26.50
2022-11-21T01:22:57.083Z,51.00
2022-11-21T01:25:24.139Z,48.75
2022-11-21T01:27:51.597Z,52.50
2022-11-21T01:30:18.956Z,50.75
2022-11-21T01:32:49.145Z,52.00
2022-11-21T01:35:17.143Z,55.00
2022-11-21T03:38:10.569Z,51.00
2022-11-21T03:40:40.664Z,46.00
2022-11-21T03:48:46.972Z,48.50
2022-11-21T03:51:14.522Z,59.75
2022-11-21T03:53:41.600Z,87.75
2022-11-21T03:56:09.756Z,59.25
2022-11-21T03:58:38.007Z,59.50
2022-11-21T04:01:05.849Z,60.50
2022-11-21T04:03:33.136Z,65.25
2022-11-21T04:06:00.795Z,56.25
2022-11-21T04:08:28.146Z,63.67
2022-11-21T04:10:55.844Z,58.25
2022-11-21T08:38:26.427Z,108.75
2022-11-21T08:41:17.672Z,102.75
2022-11-21T08:43:45.308Z,106.25
2022-11-21T08:46:12.892Z,97.75
2022-11-21T08:48:40.020Z,97.25
2022-11-21T08:51:07.943Z,102.50
2022-11-21T08:53:35.211Z,117.50
2022-11-21T08:56:04.421Z,113.75
2022-11-21T08:58:32.011Z,106.75
2022-11-21T09:01:00.698Z,93.50
2022-11-21T09:03:31.393Z,100.25
2022-11-21T09:06:00.488Z,99.00
2022-11-21T09:08:27.721Z,109.00
2022-11-21T09:10:55.161Z,92.00
2022-11-21T09:13:22.435Z,98.25
2022-11-21T09:16:08.588Z,109.25
2022-11-21T09:18:35.695Z,109.25
2022-11-21T09:21:03.114Z,77.75
2022-11-21T09:23:30.355Z,102.25
2022-11-21T09:26:00.367Z,90.25
2022-11-21T09:28:27.623Z,102.75
2022-11-21T09:30:55.253Z,86.75
2022-11-21T09:33:22.447Z,91.75
2022-11-21T09:35:50.071Z,100.00
2022-11-21T09:38:22.446Z,82.67
2022-11-21T09:40:51.496Z,79.50
2022-11-21T09:43:32.293Z,66.25
2022-11-21T09:46:09.852Z,77.50
2022-11-21T09:48:48.994Z,98.25
2022-11-21T09:51:20.976Z,50.75
2022-11-21T09:54:06.701Z,54.25
2022-11-21T09:56:39.180Z,46.75
2022-11-21T09:59:28.333Z,53.00
2022-11-21T10:01:57.325Z,80.50
2022-11-21T10:04:26.703Z,114.00
2022-11-21T10:07:10.665Z,109.25
2022-11-21T10:10:07.243Z,108.75
2022-11-21T10:12:46.717Z,93.75
2022-11-21T10:15:29.442Z,107.00
2022-11-21T10:18:21.814Z,96.75
2022-11-21T10:21:07.795Z,106.50
2022-11-21T10:23:53.445Z,70.50
2022-11-21T10:26:39.420Z,77.00
2022-11-21T10:29:23.152Z,50.50
2022-11-21T10:31:51.353Z,47.50
2022-11-21T10:34:23.776Z,48.75
2022-11-21T10:36:59.192Z,39.75
2022-11-21T10:39:49.288Z,35.25
2022-11-21T10:42:34.971Z,33.67
2022-11-21T10:45:20.117Z,35.25
2022-11-21T10:47:49.922Z,20.67
2022-11-21T10:50:49.258Z,21.67
2022-11-21T10:53:38.622Z,40.00
2022-11-21T10:56:17.938Z,31.50
2022-11-21T10:58:48.348Z,22.33
2022-11-21T11:01:54.042Z,17.67
2022-11-21T11:04:31.002Z,30.25
2022-11-21T11:07:21.842Z,10.00
2022-11-21T11:09:49.048Z,23.25
2022-11-21T11:12:47.235Z,11.33
2022-11-21T11:15:19.576Z,17.00
2022-11-21T11:18:09.060Z,15.00
2022-11-21T11:20:41.586Z,12.67
2022-11-21T11:23:21.329Z,19.33
2022-11-21T11:25:52.265Z,20.67
2022-11-21T11:28:20.720Z,16.00
2022-11-21T11:30:49.737Z,15.67
2022-11-21T11:33:34.780Z,13.00
2022-11-21T11:36:22.105Z,15.00
2022-11-21T11:38:55.537Z,19.00
2022-11-21T11:41:28.784Z,19.33
2022-11-21T11:44:15.006Z,16.00
2022-11-21T11:47:25.654Z,21.33
2022-11-21T11:50:11.712Z,13.67
2022-11-21T11:53:04.563Z,19.00
2022-11-21T11:55:36.903Z,42.25
2022-11-21T11:58:12.422Z,58.25
2022-11-21T12:00:48.938Z,37.00
2022-11-21T12:03:37.130Z,28.25
2022-11-21T12:06:11.895Z,34.25
2022-11-21T12:08:47.588Z,39.75
2022-11-21T12:11:51.570Z,16.00
2022-11-21T12:14:56.087Z,19.67
2022-11-21T12:17:33.169Z,21.00
2022-11-21T12:20:05.274Z,17.25
2022-11-21T12:22:32.820Z,12.25
2022-11-21T12:25:00.033Z,20.75
2022-11-21T12:27:32.073Z,22.75
2022-11-21T12:30:20.801Z,18.75
2022-11-21T12:32:59.373Z,17.50
2022-11-21T12:35:44.835Z,18.33
2022-11-21T12:38:45.338Z,14.33
2022-11-21T12:41:47.908Z,13.33
2022-11-21T12:44:24.531Z,15.00
2022-11-21T12:47:22.778Z,11.00
2022-11-21T12:50:37.000Z,15.67
2022-11-21T12:53:39.575Z,13.00
2022-11-21T12:56:18.719Z,11.33
2022-11-21T12:58:51.644Z,15.67
2022-11-21T13:01:33.942Z,13.33
2022-11-21T13:04:09.847Z,13.67
2022-11-21T13:06:45.178Z,18.33
2022-11-21T13:09:16.757Z,11.00
2022-11-21T13:12:07.958Z,2.00
2022-11-21T13:14:36.739Z,14.33
2022-11-21T13:17:46.645Z,8.50
2022-11-21T13:20:21.229Z,18.67
2022-11-21T13:22:57.125Z,21.33
2022-11-21T13:25:30.650Z,13.67
2022-11-21T13:28:14.006Z,9.67
2022-11-21T13:30:51.816Z,16.00
2022-11-21T13:33:37.564Z,23.00
2022-11-21T13:36:08.178Z,13.67
2022-11-21T13:38:55.822Z,18.00
2022-11-21T13:41:53.938Z,16.67
2022-11-21T13:44:38.664Z,21.33
2022-11-21T13:47:13.131Z,30.75
2022-11-21T13:49:44.099Z,47.00
2022-11-21T13:52:32.145Z,39.75
2022-11-21T13:55:24.094Z,30.75
2022-11-21T13:58:03.090Z,33.75
2022-11-21T14:01:09.290Z,34.50
2022-11-21T14:04:04.182Z,40.00
2022-11-21T14:06:43.421Z,35.50
2022-11-21T14:09:13.661Z,55.25
2022-11-21T14:11:50.042Z,13.75
2022-11-21T14:14:26.054Z,11.75
2022-11-21T14:17:27.884Z,26.00
2022-11-21T14:19:57.794Z,2.75
2022-11-21T14:22:35.538Z,25.00
2022-11-21T14:25:09.264Z,23.75
2022-11-21T14:27:45.093Z,26.00
2022-11-21T14:30:32.477Z,24.25
2022-11-21T14:33:26.366Z,23.00
2022-11-21T14:35:59.152Z,25.00
2022-11-21T14:38:29.340Z,42.25
2022-11-21T14:41:37.524Z,28.00
2022-11-21T14:44:13.997Z,40.75
2022-11-21T14:46:42.241Z,38.25
2022-11-21T14:49:12.831Z,65.75
2022-11-21T14:51:41.561Z,65.25
2022-11-21T14:54:22.130Z,56.50
2022-11-21T14:56:57.627Z,53.25
2022-11-21T14:59:29.015Z,40.50
2022-11-21T15:02:26.185Z,41.00
2022-11-21T15:04:57.729Z,42.00
2022-11-21T15:07:31.982Z,44.00
2022-11-21T15:12:53.200Z,46.00
2022-11-21T15:15:26.337Z,43.00
2022-11-21T15:18:25.815Z,41.25
2022-11-21T15:20:49.816Z,43.25
2022-11-21T15:23:33.667Z,39.00
2022-11-21T15:26:02.278Z,41.50
2022-11-21T15:28:31.069Z,50.50
2022-11-21T18:38:40.293Z,68.00
2022-11-21T18:41:07.240Z,67.50
2022-11-21T18:43:38.445Z,102.50
2022-11-21T18:46:18.696Z,94.00
2022-11-21T18:49:02.400Z,91.75
2022-11-21T18:51:38.585Z,87.50
2022-11-21T18:54:09.975Z,77.00
2022-11-21T18:56:50.550Z,92.25
2022-11-21T18:59:18.196Z,82.50
2022-11-21T19:01:46.455Z,80.25
2022-11-21T19:04:13.549Z,79.75
2022-11-21T19:06:50.043Z,79.75
2022-11-21T19:09:19.814Z,67.00
2022-11-21T19:11:47.979Z,56.00
2022-11-21T19:14:18.782Z,63.00
2022-11-21T19:16:47.722Z,83.00
2022-11-21T19:19:34.574Z,77.00
2022-11-21T19:22:09.274Z,87.25
2022-11-21T19:24:40.185Z,80.25
2022-11-21T19:27:09.015Z,75.50
2022-11-21T19:29:39.107Z,74.50
2022-11-21T19:32:10.747Z,74.00
2022-11-21T19:34:48.804Z,80.25
2022-11-21T19:37:18.827Z,80.50
2022-11-21T19:39:55.742Z,81.25
2022-11-21T19:42:23.363Z,85.50
2022-11-21T19:44:50.651Z,78.75
2022-11-21T19:47:22.793Z,91.25
2022-11-21T19:49:50.083Z,83.50
2022-11-21T19:52:17.731Z,89.50
2022-11-21T19:54:58.108Z,76.00
2022-11-21T19:57:26.930Z,79.50
2022-11-21T19:59:55.702Z,70.00
2022-11-21T20:02:47.112Z,56.50
2022-11-21T20:05:16.123Z,61.00
2022-11-21T20:07:50.497Z,55.25
2022-11-21T20:10:34.344Z,65.00
2022-11-21T20:13:36.248Z,72.00
2022-11-21T20:16:06.489Z,71.25
2022-11-21T20:18:36.329Z,63.75
2022-11-21T20:21:13.068Z,44.00
2022-11-21T20:23:41.848Z,56.75
2022-11-21T20:26:12.108Z,58.00
2022-11-21T20:28:45.284Z,56.00
2022-11-21T20:31:19.334Z,59.25
2022-11-21T20:33:54.944Z,51.75
2022-11-21T20:36:27.388Z,47.50
2022-11-21T20:39:35.120Z,50.00
2022-11-21T20:42:05.754Z,47.00
2022-11-21T20:47:31.450Z,41.25
2022-11-21T20:50:01.160Z,49.00
2022-11-21T20:53:44.349Z,54.50
2022-11-21T20:55:19.947Z,46.75
2022-11-21T20:57:47.036Z,53.75
2022-11-21T21:00:16.340Z,52.50
2022-11-21T21:02:43.642Z,51.00
2022-11-21T21:05:17.579Z,50.50
2022-11-21T21:07:45.247Z,54.00
2022-11-21T21:10:14.166Z,62.00
2022-11-21T21:12:48.712Z,54.50
2022-11-21T21:15:20.959Z,48.50
2022-11-21T21:17:58.988Z,45.25
2022-11-21T21:20:27.953Z,49.00
2022-11-21T21:22:55.899Z,51.25
2022-11-21T21:25:27.788Z,62.50
2022-11-21T21:28:07.642Z,63.00
2022-11-21T21:30:56.311Z,65.25
2022-11-21T21:33:27.593Z,142.50
2022-11-21T21:35:56.034Z,122.50
2022-11-21T21:38:24.863Z,196.25
2022-11-21T21:41:04.460Z,101.00
2022-11-21T21:43:35.118Z,60.33
2022-11-21T21:46:17.801Z,79.75
2022-11-21T21:48:52.071Z,96.00
2022-11-21T21:51:28.332Z,113.25
2022-11-21T21:53:57.092Z,96.50
2022-11-21T21:56:29.764Z,123.25
2022-11-21T21:58:58.206Z,90.25
2022-11-21T22:01:36.641Z,76.75
2022-11-21T22:04:08.341Z,84.50
2022-11-21T22:06:49.744Z,77.75
2022-11-21T22:09:20.580Z,67.50
2022-11-21T22:11:57.063Z,66.50
2022-11-21T22:14:26.710Z,62.50
2022-11-21T22:16:56.459Z,57.75
2022-11-21T22:19:23.629Z,65.00
2022-11-21T22:21:59.257Z,63.00
2022-11-21T22:24:29.017Z,60.25
2022-11-21T22:26:56.761Z,65.25
2022-11-21T22:29:43.696Z,61.75
2022-11-21T22:32:14.132Z,56.33
2022-11-21T22:34:52.712Z,63.25
2022-11-21T22:37:22.489Z,60.00
2022-11-21T22:39:49.605Z,69.00
2022-11-21T22:42:27.971Z,63.75
2022-11-21T22:44:55.190Z,62.00
2022-11-21T22:47:22.596Z,71.00
2022-11-21T22:49:53.628Z,64.00
2022-11-21T22:52:29.585Z,64.00
2022-11-21T22:55:00.304Z,58.67
2022-11-21T22:57:34.040Z,56.00
2022-11-21T23:00:02.714Z,55.25
2022-11-21T23:02:36.415Z,60.75
2022-11-21T23:05:07.308Z,56.00
2022-11-21T23:07:36.681Z,54.25
2022-11-21T23:10:07.783Z,46.25
2022-11-21T23:12:40.654Z,52.50
2022-11-21T23:15:17.974Z,54.25
2022-11-21T23:17:51.047Z,52.75
2022-11-21T23:20:19.439Z,55.00
2022-11-21T23:22:49.679Z,52.00
2022-11-21T23:25:17.820Z,50.50
2022-11-21T23:27:49.966Z,47.25
2022-11-21T23:30:17.513Z,51.00
2022-11-21T23:32:47.616Z,50.75
2022-11-21T23:35:19.610Z,46.50
2022-11-21T23:37:50.968Z,48.67
2022-11-21T23:40:21.538Z,45.00
2022-11-21T23:42:53.038Z,49.50
2022-11-21T23:45:22.822Z,40.25
2022-11-21T23:47:50.152Z,43.75
2022-11-21T23:50:17.438Z,49.00
2022-11-21T23:52:46.236Z,46.00
2022-11-21T23:55:14.529Z,43.75
2022-11-21T23:57:42.991Z,43.50
